Flight Track Log - Related Links

Times and Time Zones

All times are in EST time to prevent confusion due to time zone crossing. See the SWA1536 flight status page for this flight to view local times or setup timezone preferences in your user account.

Time Position Orientation Groundspeed Altitude Reporting Facility
EST Latitude Longitude Course Direction KTS MPH feet Rate Location/Type
Sat 12:35:06 PM 41.7667 -87.7667 217° Southwest 126 145 1,800  Level Chicago TRACON
Sat 12:36:00 PM 41.7333 -87.8000 217° Southwest 172 198 3,700 2,889 Climbing Chicago TRACON
Sat 12:36:54 PM 41.7000 -87.8333 187° South 209 241 7,000 3,508 Climbing Chicago TRACON
Sat 12:37:58 PM 41.6153 -87.8472 164° South 256 295 10,600 2,419 Climbing Chicago Center
Sat 12:38:58 PM 41.5356 -87.8158 152° Southeast 342 394 12,000 1,700 Climbing Chicago Center
Sat 12:39:58 PM 41.4533 -87.7569 150° Southeast 349 402 14,000 2,150 Climbing Chicago Center
Sat 12:40:58 PM 41.3692 -87.6925 173° South 354 407 16,300 2,500 Climbing Chicago Center
Sat 12:41:58 PM 41.2647 -87.6758 174° South 372 428 19,000 2,950 Climbing Chicago Center
Sat 12:42:58 PM 41.1497 -87.6594 174° South 394 453 22,200 2,550 Climbing Chicago Center
Sat 12:43:58 PM 41.0308 -87.6433 175° South 416 479 24,100 2,300 Climbing Chicago Center
Sat 12:44:58 PM 40.9158 -87.6297 173° South 422 486 26,800 2,450 Climbing Chicago Center
Sat 12:45:58 PM 40.7947 -87.6111 178° South 428 493 29,000 2,050 Climbing Chicago Center
Sat 12:46:58 PM 40.6675 -87.6061 174° South 448 516 30,900 2,161 Climbing Chicago Center
Sat 12:49:04 PM 40.3897 -87.5661 174° South 461 531 35,700 2,097 Climbing Indianapolis Center
Sat 12:50:04 PM 40.2611 -87.5478 175° South 461 531 37,400 1,750 Climbing Indianapolis Center
Sat 12:51:04 PM 40.1406 -87.5328 175° South 453 521 39,200 1,300 Climbing Indianapolis Center
Sat 12:52:04 PM 40.0161 -87.5175 175° South 453 521 40,000 400 Climbing Indianapolis Center
Sat 12:53:04 PM 39.8894 -87.5022 173° South 453 521 40,000  Level Indianapolis Center
Sat 12:54:04 PM 39.7814 -87.4853 175° South 453 521 40,000  Level Indianapolis Center
Sat 12:55:04 PM 39.6589 -87.4703 174° South 453 521 40,000 300 Level Indianapolis Center
Sat 12:56:04 PM 39.5344 -87.4528 175° South 453 521 40,600 500 Climbing Indianapolis Center
Sat 12:57:04 PM 39.4056 -87.4375 174° South 458 527 41,000 200 Climbing Indianapolis Center
Sat 12:58:04 PM 39.2811 -87.4203 175° South 463 533 41,000  Level Indianapolis Center
Sat 12:59:04 PM 39.1522 -87.4050 174° South 463 533 41,000  Level Indianapolis Center
Sat 01:00:04 PM 39.0339 -87.3881 175° South 451 519 41,000  Level Indianapolis Center
Sat 01:01:04 PM 38.9072 -87.3733 174° South 451 519 41,000  Level Indianapolis Center
Sat 01:02:04 PM 38.7825 -87.3561 175° South 456 525 41,000 -250 Level Indianapolis Center
Sat 01:03:04 PM 38.6578 -87.3417 175° South 456 525 40,500 -750 Descending Indianapolis Center
Sat 01:04:04 PM 38.5333 -87.3272 175° South 456 525 39,500 -750 Descending Indianapolis Center
Sat 01:05:04 PM 38.4086 -87.3128 175° South 456 525 39,000 -250 Descending Indianapolis Center
Sat 01:06:04 PM 38.2817 -87.2983 175° South 461 531 39,000  Level Indianapolis Center
Sat 01:07:04 PM 38.1569 -87.2839 174° South 461 531 39,000  Level Indianapolis Center
Sat 01:08:04 PM 38.0325 -87.2672 174° South 461 531 39,000  Level Indianapolis Center
Sat 01:09:04 PM 37.9119 -87.2506 175° South 456 525 39,000  Level Indianapolis Center
Sat 01:11:39 PM 37.5964 -87.2189 175° South 419 482 39,000  Level Memphis Center
Sat 01:12:39 PM 37.4750 -87.2056 173° South 440 506 39,000  Level Memphis Center
Sat 01:13:39 PM 37.3497 -87.1869 174° South 451 519 39,000  Level Memphis Center
Sat 01:14:39 PM 37.2306 -87.1708 175° South 444 511 39,000  Level Memphis Center
Sat 01:15:39 PM 37.1031 -87.1578 174° South 444 511 39,000  Level Memphis Center
Sat 01:16:39 PM 36.9819 -87.1419 175° South 444 511 39,000  Level Memphis Center
Sat 01:17:39 PM 36.8586 -87.1286 175° South 444 511 39,000  Level Memphis Center
Sat 01:18:39 PM 36.7228 -87.1133 174° South 444 511 39,000  Level Memphis Center
Sat 01:19:39 PM 36.5972 -87.0978 175° South 444 511 39,000  Level Memphis Center
Sat 01:20:39 PM 36.4761 -87.0847 175° South 444 511 39,000  Level Memphis Center
Sat 01:21:39 PM 36.3486 -87.0717 174° South 444 511 39,000  Level Memphis Center
Sat 01:22:39 PM 36.2231 -87.0561 173° South 450 518 39,000  Level Memphis Center
Sat 01:23:39 PM 36.0994 -87.0381 175° South 455 524 39,000  Level Memphis Center
Sat 01:24:39 PM 35.9783 -87.0250 174° South 455 524 39,000  Level Memphis Center
Sat 01:25:39 PM 35.8547 -87.0094 175° South 450 518 39,000 -335 Level Memphis Center
Sat 01:27:56 PM 35.5725 -86.9775 174° South 457 526 37,900 -1,005 Descending Atlanta Center
Sat 01:28:56 PM 35.4603 -86.9633 174° South 452 520 35,700 -1,450 Descending Atlanta Center
Sat 01:29:56 PM 35.3417 -86.9489 175° South 441 507 35,000 -462 Descending Atlanta Center
Sat 01:30:27 PM 35.2753 -86.9414 175° South 443 510 35,000 -1,451 Level Memphis Center
Sat 01:31:27 PM 35.1372 -86.9267 176° South 432 497 32,800 -2,300 Descending Memphis Center
Sat 01:32:27 PM 35.0242 -86.9161 174° South 446 513 30,400 -2,300 Descending Memphis Center
Sat 01:33:27 PM 34.9008 -86.9008 176° South 446 513 28,200 -2,250 Descending Memphis Center
Sat 01:34:27 PM 34.7878 -86.8903 174° South 422 486 25,900 -2,205 Descending Memphis Center
Sat 01:36:32 PM 34.5531 -86.8586 175° South 416 479 21,400 -2,141 Descending Atlanta Center
Sat 01:37:32 PM 34.4508 -86.8475 175° South 393 452 19,300 -1,900 Descending Atlanta Center
Sat 01:38:32 PM 34.3553 -86.8367 178° South 367 422 17,600 -1,941 Descending Atlanta Center
Sat 01:39:14 PM 34.2803 -86.8342 176° South 349 402 16,000 -2,250 Descending Atlanta Center
Sat 01:39:44 PM 34.2344 -86.8303 169° South 348 400 14,900 -1,923 Descending Atlanta Center
Sat 01:40:32 PM 34.1700 -86.8156 176° South 355 409 13,500 -2,056 Descending Atlanta Center
Sat 01:41:32 PM 34.0742 -86.8075 177° South 350 403 11,200 -1,500 Descending Atlanta Center
Sat 01:42:32 PM 33.9844 -86.8019 181° South 344 396 10,500 -950 Descending Atlanta Center
Sat 01:43:32 PM 33.9008 -86.8044 182° South 321 369 9,300 -1,050 Descending Atlanta Center
Sat 01:44:32 PM 33.8278 -86.8069 185° South 293 337 8,400 -1,250 Descending Atlanta Center
Sat 01:45:32 PM 33.7589 -86.8147 187° South 260 299 6,800 -1,400 Descending Atlanta Center
Sat 01:46:32 PM 33.7022 -86.8231 187° South 228 262 5,600 -1,200 Descending Atlanta Center

Login

Don't have an account? Register now (free) for customized features, flight alerts, and more!